Time;durP1;ratioP1;P1;durP2;ratioP2;P2;SDS_P1;SDS_P2;PMS_P1;PMS_P2;Temp;Humidity;BMP_temperature;BMP_pressure;BME280_temperature;BME280_humidity;BME280_pressure;Samples;Min_cycle;Max_cycle;Signal;HPM_P1;HPM_P2
2022/07/29 00:01:42;;;;;;;3.27;1.30;;;20.00;53.10;;;22.64;41.09;101890.88;5093996;28;20677;-62
2022/07/29 00:04:09;;;;;;;1.77;1.50;;;20.00;53.20;;;22.65;41.42;101889.00;5094473;28;20221;-62
2022/07/29 00:06:37;;;;;;;1.43;1.33;;;19.90;53.20;;;22.63;41.31;101886.53;5095523;28;20189;-62
2022/07/29 00:09:04;;;;;;;3.57;1.90;;;20.00;53.20;;;22.61;41.38;101880.56;5094441;28;20560;-64
2022/07/29 00:11:31;;;;;;;4.33;1.90;;;19.90;53.20;;;22.60;41.65;101878.09;5093977;28;20215;-64
2022/07/29 00:13:59;;;;;;;2.63;1.57;;;19.90;53.20;;;22.56;41.42;101877.72;5094518;28;20188;-62
2022/07/29 00:16:27;;;;;;;3.90;1.87;;;19.80;53.00;;;22.52;41.38;101875.69;5094167;28;20193;-62
2022/07/29 00:18:55;;;;;;;2.50;2.10;;;19.90;53.30;;;22.48;41.81;101875.34;5094041;28;20218;-63
2022/07/29 00:21:26;;;;;;;2.57;1.43;;;19.80;53.30;;;22.45;41.48;101872.28;5093823;28;20204;-63
2022/07/29 00:23:54;;;;;;;2.23;1.67;;;19.80;53.30;;;22.40;41.32;101872.13;5095260;28;20212;-62
2022/07/29 00:26:21;;;;;;;4.10;1.77;;;19.80;53.50;;;22.36;41.44;101863.72;5093888;28;20235;-62
2022/07/29 00:28:48;;;;;;;1.50;1.37;;;19.70;53.40;;;22.32;41.44;101854.50;5093959;28;20203;-63
2022/07/29 00:31:16;;;;;;;5.33;1.40;;;19.70;53.60;;;22.28;41.79;101853.28;5093692;28;20208;-63
2022/07/29 00:33:45;;;;;;;2.37;1.57;;;19.60;53.70;;;22.28;42.00;101853.28;5094055;28;20188;-63
2022/07/29 00:36:12;;;;;;;5.50;1.70;;;19.60;53.70;;;22.27;42.31;101853.50;5093937;28;20662;-63
2022/07/29 00:38:41;;;;;;;3.17;1.77;;;19.60;53.80;;;22.24;41.46;101852.09;5093810;28;20196;-61
2022/07/29 00:41:08;;;;;;;2.20;1.30;;;19.60;53.70;;;22.19;42.11;101850.09;5094715;28;20188;-63
2022/07/29 00:43:36;;;;;;;2.80;1.63;;;19.50;53.80;;;22.18;42.24;101847.59;5093656;28;20574;-63
2022/07/29 00:46:03;;;;;;;2.77;1.37;;;19.50;53.90;;;22.16;41.96;101844.34;5093715;28;20216;-62
2022/07/29 00:48:31;;;;;;;2.20;1.60;;;19.50;54.10;;;22.16;41.94;101838.97;5093893;28;20184;-63
2022/07/29 00:51:04;;;;;;;3.87;1.70;;;19.40;53.90;;;22.13;41.86;101844.81;5093188;28;20197;-62
2022/07/29 00:53:32;;;;;;;1.73;1.40;;;19.40;53.80;;;22.08;42.36;101844.66;5093830;28;20207;-62
2022/07/29 00:55:59;;;;;;;2.80;1.80;;;19.40;54.10;;;22.03;42.12;101839.97;5111441;28;20218;-62
2022/07/29 00:58:27;;;;;;;3.80;1.60;;;19.30;54.20;;;22.02;42.04;101841.00;5113982;28;20549;-63
2022/07/29 01:00:54;;;;;;;1.93;1.20;;;19.30;54.20;;;22.02;42.37;101842.84;5112990;28;20538;-63
2022/07/29 01:03:22;;;;;;;2.53;1.60;;;19.30;54.40;;;22.00;42.30;101831.53;5113917;28;20214;-63
2022/07/29 01:05:50;;;;;;;2.83;1.47;;;19.30;54.30;;;21.99;42.38;101832.56;5113846;28;20195;-63
2022/07/29 01:08:21;;;;;;;2.33;1.40;;;19.30;54.20;;;21.96;42.24;101827.66;5113779;28;20207;-63
2022/07/29 01:10:51;;;;;;;2.70;1.50;;;19.20;54.20;;;21.93;42.26;101822.72;5111731;28;20184;-62
2022/07/29 01:13:19;;;;;;;3.00;1.70;;;19.20;54.30;;;21.90;42.76;101824.00;5113663;28;20187;-63
2022/07/29 01:15:56;;;;;;;2.07;1.53;;;19.20;55.20;;;21.88;42.78;101814.53;5112455;28;20597;-62
2022/07/29 01:18:33;;;;;;;1.80;1.30;;;19.20;54.60;;;21.88;42.21;101809.16;5113484;28;20194;-61
2022/07/29 01:21:48;;;;;;;1.40;1.30;;;19.10;54.50;;;21.81;42.37;101805.72;5113250;28;20548;-61
2022/07/29 01:24:37;;;;;;;2.90;1.80;;;19.20;54.70;;;21.83;42.27;101812.50;5086841;28;20236;-63
2022/07/29 01:27:26;;;;;;;2.93;1.20;;;19.20;55.20;;;21.84;42.35;101806.13;5111980;28;20203;-61
2022/07/29 01:29:58;;;;;;;2.73;1.50;;;19.20;54.50;;;21.88;42.50;101801.94;5113651;28;20198;-63
2022/07/29 01:32:31;;;;;;;3.00;1.60;;;19.20;54.40;;;21.90;42.06;101801.72;5113103;28;20204;-63
2022/07/29 01:35:04;;;;;;;2.93;1.60;;;19.20;54.30;;;21.90;42.17;101796.34;5113453;28;20626;-63
2022/07/29 01:37:43;;;;;;;2.97;1.80;;;19.20;54.40;;;21.90;41.98;101801.72;5113291;28;20195;-63
2022/07/29 01:40:19;;;;;;;1.60;1.50;;;19.20;54.20;;;21.88;41.94;101793.09;5113451;28;20644;-62
2022/07/29 01:42:53;;;;;;;1.47;1.37;;;19.20;54.20;;;21.86;42.27;101789.81;5113283;28;20204;-63
2022/07/29 01:45:30;;;;;;;2.90;1.40;;;19.10;54.30;;;21.84;42.08;101786.50;5111743;28;20680;-62
2022/07/29 01:48:06;;;;;;;4.07;1.67;;;19.10;54.40;;;21.84;42.48;101789.19;5113462;28;20640;-63
2022/07/29 01:50:41;;;;;;;2.03;1.60;;;19.10;54.40;;;21.82;42.46;101778.66;5113267;28;20183;-63
2022/07/29 01:53:14;;;;;;;5.10;2.03;;;19.10;54.40;;;21.83;42.35;101779.50;5113455;28;20204;-63
2022/07/29 01:55:47;;;;;;;2.30;1.70;;;19.10;54.90;;;21.81;42.27;101773.53;5113331;28;20203;-63
2022/07/29 01:58:18;;;;;;;1.93;1.73;;;19.10;54.40;;;21.80;41.86;101769.25;5113286;28;20195;-63
2022/07/29 02:00:50;;;;;;;2.00;1.47;;;19.10;54.20;;;21.78;41.89;101771.28;5107627;28;20223;-62
2022/07/29 02:03:18;;;;;;;3.33;1.57;;;19.00;54.30;;;21.78;42.18;101765.94;5097797;28;20572;-62
2022/07/29 02:05:49;;;;;;;3.20;1.50;;;19.00;54.30;;;21.75;42.44;101761.03;5093083;28;20189;-62
2022/07/29 02:08:19;;;;;;;1.70;1.30;;;19.00;54.50;;;21.74;41.99;101762.91;5092777;28;20259;-62
2022/07/29 02:10:50;;;;;;;2.37;1.70;;;18.90;54.50;;;21.73;42.44;101755.09;5092438;28;20192;-62
2022/07/29 02:13:23;;;;;;;1.50;1.40;;;19.00;54.50;;;21.73;42.52;101755.88;5095995;28;20216;-62
2022/07/29 02:15:55;;;;;;;2.13;1.50;;;19.00;54.40;;;21.69;42.23;101743.97;5096709;28;20197;-62
2022/07/29 02:18:27;;;;;;;4.17;1.73;;;18.90;54.10;;;21.66;42.17;101748.94;5115311;28;20200;-63
2022/07/29 02:20:58;;;;;;;1.67;1.10;;;18.90;54.30;;;21.64;42.56;101753.72;5116508;27;20648;-62
2022/07/29 02:23:28;;;;;;;2.30;1.43;;;18.90;54.30;;;21.60;42.42;101748.00;5115676;28;20199;-62
2022/07/29 02:25:57;;;;;;;4.47;1.47;;;18.90;54.50;;;21.61;42.19;101748.81;5115656;28;20195;-62
2022/07/29 02:28:29;;;;;;;3.17;1.57;;;18.90;54.50;;;21.62;42.25;101751.28;5115126;28;20283;-61
2022/07/29 02:31:01;;;;;;;3.07;1.60;;;18.90;54.50;;;21.63;42.46;101752.91;5114867;28;20180;-62
2022/07/29 02:33:31;;;;;;;2.23;1.73;;;18.90;54.50;;;21.66;41.96;101746.25;5107036;28;20521;-62
2022/07/29 02:36:01;;;;;;;4.03;1.47;;;18.90;54.50;;;21.68;42.24;101738.84;5096394;28;20510;-61
2022/07/29 02:41:23;;;;;;;4.40;1.70;;;18.90;55.00;;;21.72;42.23;101748.06;5095754;28;20307;-62
2022/07/29 02:43:56;;;;;;;2.23;1.77;;;18.90;54.20;;;21.71;41.85;101743.75;5095836;28;20205;-62
2022/07/29 02:46:32;;;;;;;5.47;1.97;;;18.90;54.10;;;21.70;42.37;101750.16;5095765;28;20708;-62
2022/07/29 02:49:09;;;;;;;4.43;1.63;;;19.00;54.40;;;21.70;42.22;101750.16;5096010;28;20191;-62
2022/07/29 02:51:45;;;;;;;6.73;1.90;;;18.90;54.30;;;21.71;42.35;101759.81;5075314;28;20213;-62
2022/07/29 02:54:25;;;;;;;1.90;1.50;;;18.90;54.30;;;21.69;41.91;101753.88;5075490;28;20189;-62
2022/07/29 02:56:58;;;;;;;2.33;1.60;;;18.90;54.20;;;21.70;42.21;101758.19;5075446;28;20195;-62
2022/07/29 02:59:30;;;;;;;3.23;1.67;;;18.90;54.20;;;21.71;42.29;101754.47;5075391;28;20217;-62
2022/07/29 03:02:01;;;;;;;2.90;1.43;;;18.90;54.90;;;21.72;42.02;101758.78;5074778;28;20201;-62
2022/07/29 03:04:32;;;;;;;2.97;1.70;;;18.90;54.30;;;21.72;42.29;101753.44;5075346;28;20213;-62
2022/07/29 03:07:01;;;;;;;2.03;1.73;;;18.90;54.00;;;21.69;42.27;101756.56;5089799;28;20199;-62
2022/07/29 03:09:30;;;;;;;3.67;1.60;;;18.90;54.20;;;21.68;41.84;101754.94;5095350;28;20196;-62
2022/07/29 03:11:59;;;;;;;4.70;1.63;;;18.90;54.30;;;21.68;42.00;101745.00;5094776;28;20208;-61
2022/07/29 03:14:28;;;;;;;3.73;1.87;;;18.90;54.50;;;21.69;42.23;101753.88;5095346;28;20193;-62
2022/07/29 03:16:57;;;;;;;2.10;1.77;;;18.90;54.30;;;21.69;41.97;101759.22;5095311;28;20189;-62
2022/07/29 03:19:27;;;;;;;2.97;1.50;;;18.90;54.90;;;21.68;41.90;101755.72;5094722;28;20196;-62
2022/07/29 03:21:56;;;;;;;2.60;2.00;;;18.90;54.50;;;21.71;42.29;101759.81;5094698;28;20231;-62
2022/07/29 03:24:32;;;;;;;4.60;2.03;;;18.90;54.40;;;21.72;42.29;101761.47;5095169;28;20209;-62
2022/07/29 03:27:00;;;;;;;3.90;1.60;;;18.90;54.20;;;21.75;41.96;101755.69;5095349;28;20625;-62
2022/07/29 03:29:28;;;;;;;2.10;1.90;;;18.90;54.30;;;21.76;41.89;101752.75;5094985;28;20534;-62
2022/07/29 03:32:02;;;;;;;4.90;1.60;;;19.00;54.30;;;21.76;42.32;101746.56;5094428;28;20261;-62
2022/07/29 03:34:37;;;;;;;2.70;1.90;;;19.00;54.90;;;21.77;41.96;101750.91;5074811;28;20223;-62
2022/07/29 03:37:06;;;;;;;1.60;1.33;;;19.00;54.30;;;21.77;41.81;101743.69;5074725;28;20592;-62
2022/07/29 03:39:40;;;;;;;3.70;1.80;;;19.00;54.30;;;21.78;41.77;101744.50;5082995;28;20192;-62
2022/07/29 03:42:13;;;;;;;2.53;1.70;;;19.00;54.20;;;21.78;42.09;101739.13;5094222;28;20211;-62
2022/07/29 03:44:45;;;;;;;2.77;1.50;;;19.00;54.30;;;21.78;42.06;101739.13;5093613;28;20239;-62
2022/07/29 03:47:17;;;;;;;3.10;1.60;;;19.00;54.20;;;21.79;41.86;101746.13;5094571;28;20204;-62
2022/07/29 03:49:53;;;;;;;3.57;1.67;;;19.00;54.90;;;21.77;41.87;101743.69;5095044;28;20266;-62
2022/07/29 03:52:21;;;;;;;3.83;1.57;;;19.00;54.20;;;21.77;42.16;101743.69;5094029;28;20680;-62
2022/07/29 03:54:49;;;;;;;4.37;2.23;;;19.00;54.30;;;21.79;41.95;101740.78;5094450;28;20639;-62
2022/07/29 03:57:20;;;;;;;1.33;1.23;;;19.00;54.40;;;21.81;42.38;101754.78;5095284;28;20196;-62
2022/07/29 03:59:51;;;;;;;1.63;1.53;;;19.00;54.20;;;21.80;41.85;101747.78;5093243;28;20196;-61
2022/07/29 04:02:18;;;;;;;2.93;1.90;;;19.00;54.20;;;21.78;41.76;101745.31;5093582;28;20220;-62
2022/07/29 04:04:52;;;;;;;3.03;1.63;;;19.00;54.40;;;21.78;42.29;101745.31;5094219;28;20250;-62
2022/07/29 04:07:19;;;;;;;4.00;1.80;;;19.00;54.40;;;21.81;41.79;101739.50;5094151;28;20649;-62
2022/07/29 04:09:47;;;;;;;3.90;1.60;;;19.00;54.40;;;21.85;41.91;101739.91;5094116;28;20191;-62
2022/07/29 04:12:14;;;;;;;5.07;1.80;;;19.00;54.30;;;21.89;42.23;101741.94;5093441;28;20223;-62
2022/07/29 04:14:42;;;;;;;4.50;1.77;;;19.10;54.40;;;21.94;41.65;101738.59;5112280;28;20196;-62
2022/07/29 04:17:09;;;;;;;3.80;2.00;;;19.10;54.30;;;21.96;42.00;101737.31;5114116;28;20188;-62
2022/07/29 04:19:36;;;;;;;3.33;1.77;;;19.20;54.20;;;21.98;42.14;101737.06;5113960;27;20660;-62
2022/07/29 04:22:05;;;;;;;2.80;1.67;;;19.20;54.10;;;21.97;41.85;101732.75;5113618;28;20218;-63
2022/07/29 04:24:33;;;;;;;3.53;1.53;;;19.20;54.10;;;22.00;41.60;101740.34;5113024;28;20223;-62
2022/07/29 04:27:00;;;;;;;3.20;2.03;;;19.20;54.10;;;22.01;41.43;101739.31;5114419;28;20184;-62
2022/07/29 04:29:27;;;;;;;2.27;1.47;;;19.20;54.10;;;22.03;41.72;101737.22;5112733;28;20192;-63
2022/07/29 04:31:55;;;;;;;3.70;2.33;;;19.20;54.10;;;22.03;41.87;101731.88;5114256;28;20208;-63
2022/07/29 04:34:22;;;;;;;6.30;1.57;;;19.20;54.10;;;22.04;41.57;101733.47;5114054;28;20187;-64
2022/07/29 04:36:54;;;;;;;4.50;2.00;;;19.20;54.70;;;22.03;41.47;101748.78;5114339;28;20192;-63
2022/07/29 04:39:23;;;;;;;3.23;1.77;;;19.20;54.10;;;22.03;41.32;101739.91;5114023;28;20188;-63
2022/07/29 04:41:55;;;;;;;4.33;1.83;;;19.20;54.10;;;22.05;42.10;101745.84;5113721;27;20270;-61
2022/07/29 04:44:23;;;;;;;3.20;1.90;;;19.20;54.10;;;22.07;41.77;101743.75;5113646;28;20211;-62
2022/07/29 04:46:56;;;;;;;4.00;1.67;;;19.20;54.30;;;22.06;41.57;101736.78;5112597;28;20184;-61
2022/07/29 04:49:24;;;;;;;3.87;1.93;;;19.20;54.30;;;22.05;42.13;101738.63;5114221;28;20211;-63
2022/07/29 04:51:52;;;;;;;4.20;2.10;;;19.20;54.50;;;22.08;42.04;101740.06;5095155;28;20714;-63
2022/07/29 04:54:19;;;;;;;2.00;1.80;;;19.20;54.50;;;22.08;41.92;101742.72;5114179;28;20188;-61
2022/07/29 04:56:48;;;;;;;4.70;1.70;;;19.30;54.50;;;22.08;41.72;101732.81;5113451;28;20184;-63
2022/07/29 04:59:15;;;;;;;2.30;1.80;;;19.20;54.30;;;22.06;42.05;101737.56;5113633;28;20192;-63
2022/07/29 05:01:43;;;;;;;2.87;1.80;;;19.20;54.50;;;22.07;41.78;101739.22;5113175;28;20218;-63
2022/07/29 05:04:10;;;;;;;1.70;1.60;;;19.20;54.50;;;22.04;42.19;101744.22;5096792;28;20690;-62
2022/07/29 05:06:37;;;;;;;3.63;1.97;;;19.20;54.60;;;22.07;41.72;101738.41;5092827;28;20206;-63
2022/07/29 05:09:05;;;;;;;2.00;1.70;;;19.20;54.60;;;22.07;41.83;101735.72;5093028;28;20196;-64
2022/07/29 05:11:32;;;;;;;2.60;1.40;;;19.20;54.50;;;22.09;42.25;101736.31;5092756;28;20220;-63
2022/07/29 05:14:01;;;;;;;4.97;2.13;;;19.20;54.60;;;22.11;42.26;101734.22;5092783;28;20265;-63
2022/07/29 05:16:29;;;;;;;3.80;2.13;;;19.20;54.70;;;22.12;41.83;101741.22;5093015;28;20234;-63
2022/07/29 05:18:56;;;;;;;2.30;2.10;;;19.20;54.70;;;22.15;41.74;101730.06;5094061;28;20200;-63
2022/07/29 05:21:24;;;;;;;3.73;2.10;;;19.20;54.80;;;22.19;42.13;101736.59;5092864;28;20204;-63
2022/07/29 05:23:51;;;;;;;2.63;2.17;;;19.30;54.80;;;22.21;41.70;101740.69;5092890;28;20196;-62
2022/07/29 05:26:19;;;;;;;4.43;2.40;;;19.30;54.70;;;22.21;41.85;101734.50;5091400;28;20200;-62
2022/07/29 05:28:46;;;;;;;4.43;2.27;;;19.30;54.70;;;22.22;42.08;101728.09;5092527;28;20564;-62
2022/07/29 05:31:15;;;;;;;3.93;2.07;;;19.30;54.80;;;22.27;42.04;101738.97;5092052;28;20322;-63
2022/07/29 05:33:43;;;;;;;3.07;2.10;;;19.40;54.90;;;22.33;42.23;101731.88;5092749;28;20184;-63
2022/07/29 05:36:11;;;;;;;5.17;2.40;;;19.40;54.90;;;22.32;41.74;101733.75;5093804;28;20246;-62
2022/07/29 05:38:38;;;;;;;3.27;2.10;;;19.40;54.90;;;22.29;41.94;101739.56;5093300;28;20184;-60
2022/07/29 05:41:07;;;;;;;2.70;1.93;;;19.40;54.90;;;22.30;41.97;101732.34;5092201;28;20602;-62
2022/07/29 05:43:34;;;;;;;4.30;1.93;;;19.40;55.00;;;22.28;42.28;101729.88;5092637;28;20189;-62
2022/07/29 05:46:02;;;;;;;4.07;2.23;;;19.40;55.10;;;22.30;42.49;101733.13;5092782;28;20216;-63
2022/07/29 05:48:31;;;;;;;6.20;2.90;;;19.40;55.10;;;22.31;42.05;101731.28;5096249;28;20201;-62
2022/07/29 05:50:58;;;;;;;5.90;2.90;;;19.40;55.20;;;22.33;42.37;101738.06;5095754;28;20195;-63
2022/07/29 05:53:26;;;;;;;3.93;2.77;;;19.40;55.10;;;22.34;42.27;101739.72;5097179;28;20188;-60
2022/07/29 05:55:53;;;;;;;3.17;2.47;;;19.40;55.70;;;22.36;42.18;101737.59;5096570;28;20191;-63
2022/07/29 05:58:20;;;;;;;3.27;2.30;;;19.50;55.10;;;22.40;42.15;101737.97;5096909;28;20196;-63
2022/07/29 06:00:48;;;;;;;3.07;2.10;;;19.50;55.20;;;22.41;42.21;101740.44;5096491;28;20188;-62
2022/07/29 06:03:15;;;;;;;5.03;2.10;;;19.50;55.20;;;22.37;42.24;101731.19;5096687;28;20216;-62
2022/07/29 06:05:44;;;;;;;7.80;7.03;;;19.50;55.10;;;22.42;42.25;101741.22;5096400;28;20216;-63
2022/07/29 06:08:11;;;;;;;6.00;3.07;;;19.60;55.20;;;22.44;42.51;101739.97;5096195;28;20189;-62
2022/07/29 06:10:39;;;;;;;3.33;2.63;;;19.60;55.30;;;22.47;42.16;101739.50;5097406;28;20578;-63
2022/07/29 06:13:06;;;;;;;3.00;2.33;;;19.60;55.20;;;22.49;41.99;101737.41;5096148;28;20205;-63
2022/07/29 06:15:33;;;;;;;4.20;2.07;;;19.60;55.20;;;22.52;42.22;101736.97;5096675;28;20255;-62
2022/07/29 06:18:01;;;;;;;3.80;2.40;;;19.60;55.20;;;22.53;42.30;101733.25;5096154;28;20200;-62
2022/07/29 06:20:29;;;;;;;3.33;2.60;;;19.70;55.20;;;22.56;42.31;101732.75;5096598;28;20212;-62
2022/07/29 06:22:59;;;;;;;2.43;2.17;;;19.70;55.20;;;22.61;42.08;101734.78;5097482;28;20208;-62
2022/07/29 06:25:32;;;;;;;5.23;2.53;;;19.70;55.30;;;22.65;41.88;101733.31;5097169;28;20235;-62
2022/07/29 06:27:59;;;;;;;4.80;2.63;;;19.70;55.30;;;22.70;42.13;101738.81;5116585;28;20216;-62
2022/07/29 06:30:28;;;;;;;7.13;6.03;;;19.70;55.20;;;22.73;41.87;101725.72;5116567;28;20191;-62
2022/07/29 06:32:55;;;;;;;4.10;3.53;;;19.80;55.30;;;22.78;41.92;101725.03;5116398;28;20282;-62
2022/07/29 06:35:23;;;;;;;6.60;2.83;;;19.80;55.30;;;22.83;41.88;101728.66;5116764;28;20229;-61
2022/07/29 06:38:09;;;;;;;4.83;2.80;;;19.80;55.30;;;22.90;42.04;101734.75;5115752;28;20272;-62
2022/07/29 06:40:59;;;;;;;4.83;2.67;;;19.90;55.30;;;22.96;41.88;101729.50;5115647;28;20221;-62
2022/07/29 06:43:31;;;;;;;6.00;2.53;;;19.90;55.10;;;23.05;41.32;101730.81;5114361;27;20188;-62
2022/07/29 06:46:01;;;;;;;5.57;2.10;;;20.00;55.10;;;23.10;41.44;101737.13;5116280;28;20636;-63
2022/07/29 06:48:29;;;;;;;5.63;2.33;;;20.10;54.90;;;23.12;41.71;101731.50;5116324;28;20187;-62
2022/07/29 06:50:56;;;;;;;3.10;2.50;;;20.10;54.80;;;23.18;41.54;101741.31;5115630;28;20294;-62
2022/07/29 06:53:26;;;;;;;2.83;2.37;;;20.20;54.80;;;23.26;41.28;101740.97;5116567;28;20187;-62
2022/07/29 06:55:53;;;;;;;2.37;2.10;;;20.20;54.70;;;23.32;41.23;101740.06;5115985;28;20184;-62
2022/07/29 06:58:21;;;;;;;2.10;2.00;;;20.30;54.70;;;23.38;41.06;101737.28;5114562;28;20184;-62
2022/07/29 07:00:48;;;;;;;4.03;2.30;;;20.30;54.60;;;23.50;41.01;101745.31;5113157;28;20192;-62
2022/07/29 07:03:17;;;;;;;5.47;2.93;;;20.30;54.60;;;23.57;40.94;101743.34;5115522;28;20517;-62
2022/07/29 07:05:46;;;;;;;7.33;2.60;;;20.40;54.60;;;23.62;40.38;101742.63;5115694;28;20212;-62
2022/07/29 07:08:13;;;;;;;8.57;3.57;;;20.50;54.40;;;23.68;40.63;101745.19;5115849;28;20195;-63
2022/07/29 07:10:43;;;;;;;5.87;3.53;;;20.60;54.30;;;23.78;40.39;101731.97;5115211;28;20193;-62
2022/07/29 07:13:10;;;;;;;4.93;2.50;;;20.60;54.10;;;23.86;40.27;101739.66;5115639;28;20216;-63
2022/07/29 07:15:38;;;;;;;4.23;2.93;;;20.80;54.00;;;23.89;40.34;101739.16;5110903;28;20193;-62
2022/07/29 07:18:07;;;;;;;7.23;3.13;;;20.80;53.80;;;23.88;40.18;101742.94;5095160;28;20599;-62
2022/07/29 07:20:35;;;;;;;4.23;3.83;;;20.90;53.50;;;23.85;40.24;101743.41;5094654;28;20211;-63
2022/07/29 07:23:03;;;;;;;6.00;4.20;;;20.90;53.50;;;23.89;40.55;101736.47;5095372;28;20215;-62
2022/07/29 07:25:31;;;;;;;3.50;2.30;;;21.00;53.60;;;23.94;40.56;101736.59;5095396;28;20677;-63
2022/07/29 07:27:59;;;;;;;4.00;2.60;;;21.00;53.30;;;24.04;40.24;101746.75;5095420;28;20194;-62
2022/07/29 07:30:27;;;;;;;6.20;2.93;;;21.10;54.00;;;24.14;40.16;101742.41;5094527;28;20191;-61
2022/07/29 07:32:55;;;;;;;3.90;2.47;;;21.20;53.40;;;24.22;40.07;101733.94;5095683;28;20212;-62
2022/07/29 07:35:22;;;;;;;7.70;2.50;;;21.20;53.00;;;24.33;39.57;101737.66;5095111;28;20196;-62
2022/07/29 07:37:50;;;;;;;4.67;2.57;;;21.30;53.10;;;24.42;39.86;101733.53;5094461;28;20207;-63
2022/07/29 07:40:17;;;;;;;3.97;2.67;;;21.40;53.00;;;24.53;39.39;101729.16;5095045;28;20197;-63
2022/07/29 07:42:45;;;;;;;3.57;2.70;;;21.50;52.70;;;24.66;39.40;101731.53;5094057;28;20253;-63
2022/07/29 07:45:14;;;;;;;3.93;2.43;;;21.60;52.60;;;24.74;39.42;101723.88;5094675;28;20208;-63
2022/07/29 07:47:43;;;;;;;3.57;2.33;;;21.70;52.30;;;24.78;38.58;101726.91;5094563;28;20251;-63
2022/07/29 07:50:12;;;;;;;6.80;2.47;;;21.90;52.00;;;24.82;39.17;101720.78;5095679;28;20641;-63
2022/07/29 07:52:51;;;;;;;6.70;3.20;;;21.90;51.90;;;24.88;38.79;101732.47;5094370;28;20541;-63
2022/07/29 07:55:20;;;;;;;9.00;3.70;;;22.00;51.70;;;25.02;39.08;101733.78;5094657;28;20197;-62
2022/07/29 07:57:48;;;;;;;6.87;3.87;;;22.10;51.80;;;25.18;38.36;101730.25;5094398;28;20193;-63
2022/07/29 08:00:17;;;;;;;5.77;2.70;;;22.20;51.70;;;25.39;38.06;101731.34;5093758;28;20291;-63
2022/07/29 08:02:49;;;;;;;5.30;2.40;;;22.30;51.60;;;25.54;37.78;101732.44;5094148;28;20215;-63
2022/07/29 08:05:18;;;;;;;6.07;3.63;;;22.40;51.10;;;25.76;37.49;101737.03;5096740;28;20188;-63
2022/07/29 08:07:46;;;;;;;5.27;2.97;;;22.50;50.80;;;26.07;36.57;101737.16;5114666;28;20241;-62
2022/07/29 08:10:14;;;;;;;5.03;3.63;;;22.70;50.30;;;26.75;36.30;101739.25;5114444;28;20188;-64
2022/07/29 08:12:44;;;;;;;7.50;3.27;;;23.00;50.20;;;27.30;35.47;101730.75;5113907;28;20203;-66
2022/07/29 08:15:11;;;;;;;5.50;2.90;;;23.40;49.80;;;27.83;33.87;101740.53;5114371;28;20211;-63
2022/07/29 08:17:41;;;;;;;3.80;2.50;;;23.70;48.40;;;28.40;33.68;101745.88;5113722;27;20593;-62
2022/07/29 08:20:10;;;;;;;5.33;2.57;;;24.10;48.20;;;28.70;32.94;101737.81;5090454;28;20383;-61
2022/07/29 08:22:37;;;;;;;3.63;2.50;;;24.50;47.50;;;28.96;32.37;101733.19;5096250;28;20211;-64
2022/07/29 08:25:06;;;;;;;2.73;1.90;;;24.80;46.60;;;29.72;31.32;101741.19;5114239;28;20192;-64
2022/07/29 08:27:34;;;;;;;2.37;2.00;;;25.20;46.00;;;30.91;30.38;101739.97;5093028;28;20204;-62
2022/07/29 08:30:11;;;;;;;14.37;11.77;;;25.70;45.60;;;32.44;27.91;101738.75;5068017;27;20692;-65
2022/07/29 08:32:42;;;;;;;4.60;3.03;;;26.40;44.30;;;33.98;26.23;101735.38;5093573;28;20220;-64
2022/07/29 08:35:24;;;;;;;4.03;2.70;;;27.20;42.30;;;34.94;25.29;101735.88;5092750;28;20561;-66
2022/07/29 08:37:55;;;;;;;6.03;4.27;;;28.20;40.90;;;35.24;24.76;101735.09;5077292;28;20216;-64
2022/07/29 08:40:24;;;;;;;5.00;2.60;;;28.80;38.80;;;35.19;24.31;101729.75;5089781;28;20189;-65
2022/07/29 08:43:03;;;;;;;7.57;3.90;;;29.30;37.30;;;35.23;23.69;101733.50;5080622;28;20243;-64
2022/07/29 08:45:44;;;;;;;5.63;4.40;;;29.60;36.40;;;35.51;23.75;101737.66;5086116;28;20204;-64
2022/07/29 08:48:21;;;;;;;4.70;2.47;;;29.90;35.40;;;36.02;23.90;101733.44;5101108;28;20270;-64
2022/07/29 08:50:56;;;;;;;5.27;2.43;;;30.20;35.40;;;36.53;22.46;101733.47;5093971;28;20255;-63
2022/07/29 08:53:27;;;;;;;4.93;3.07;;;30.50;33.80;;;37.11;21.65;101721.88;5100089;28;20625;-64
2022/07/29 08:55:56;;;;;;;3.67;2.07;;;30.90;33.70;;;37.56;21.63;101725.72;5084434;28;20192;-63
2022/07/29 08:58:26;;;;;;;4.10;2.70;;;31.30;32.90;;;38.01;20.52;101717.69;5092637;28;20199;-65
2022/07/29 09:00:56;;;;;;;2.57;2.23;;;31.70;32.50;;;38.74;20.03;101723.56;5087622;28;20636;-64
2022/07/29 09:03:31;;;;;;;2.53;2.13;;;32.10;31.20;;;39.60;19.73;101712.31;5087939;28;20673;-64
2022/07/29 09:06:01;;;;;;;2.65;2.00;;;32.60;30.40;;;40.21;18.75;101715.72;5092227;28;20243;-64
2022/07/29 09:08:30;;;;;;;2.45;2.10;;;33.00;29.60;;;40.93;17.93;101720.94;5091349;28;20192;-64
2022/07/29 09:10:59;;;;;;;2.58;2.38;;;33.50;29.50;;;41.52;17.68;101714.47;5091250;28;20653;-63
2022/07/29 09:13:30;;;;;;;3.92;3.60;;;34.00;28.50;;;42.03;16.92;101713.28;5096961;28;20196;-61
2022/07/29 09:15:57;;;;;;;2.58;2.33;;;34.40;27.80;;;42.29;16.57;101716.19;5112471;28;20180;-63
2022/07/29 09:18:37;;;;;;;4.55;2.60;;;34.80;27.30;;;42.59;16.60;101710.06;5110415;27;20243;-63
2022/07/29 09:24:06;;;;;;;3.08;2.60;;;35.40;26.60;;;42.08;16.93;101710.19;5111195;28;20203;-64
2022/07/29 09:26:37;;;;;;;5.97;3.10;;;35.60;25.90;;;41.38;17.28;101719.69;5097313;28;20208;-62
2022/07/29 09:29:12;;;;;;;4.93;2.50;;;35.40;25.70;;;40.14;17.45;101710.81;5097095;28;20199;-63
2022/07/29 09:31:42;;;;;;;3.10;1.98;;;35.10;25.90;;;39.12;18.89;101711.09;5096667;28;20207;-62
2022/07/29 09:34:13;;;;;;;4.30;2.28;;;34.60;26.40;;;38.43;19.62;101713.78;5092417;28;20719;-62
2022/07/29 09:36:42;;;;;;;3.67;2.03;;;34.10;27.00;;;37.92;19.67;101714.19;5103698;28;20665;-63
2022/07/29 09:39:09;;;;;;;9.38;8.45;;;33.60;27.30;;;37.51;20.15;101709.44;5096366;28;20204;-62
2022/07/29 09:41:49;;;;;;;3.00;2.63;;;33.20;27.90;;;37.22;20.47;101712.13;5093320;28;20216;-62
2022/07/29 09:44:18;;;;;;;3.47;2.35;;;32.90;28.10;;;37.05;21.27;101706.69;5092360;28;20203;-63
2022/07/29 09:47:05;;;;;;;2.70;2.10;;;32.70;28.80;;;36.80;20.43;101711.09;5089388;28;20216;-64
2022/07/29 09:49:49;;;;;;;3.35;2.25;;;32.50;28.80;;;36.45;21.09;101704.03;5095468;28;20193;-65
2022/07/29 09:52:17;;;;;;;3.40;2.40;;;32.30;28.80;;;36.19;21.91;101712.28;5084005;28;20231;-62
2022/07/29 09:54:45;;;;;;;5.10;3.57;;;32.10;29.10;;;35.87;21.87;101699.81;5100760;28;20198;-62
2022/07/29 09:57:25;;;;;;;3.73;2.70;;;31.90;29.20;;;35.47;21.98;101692.78;5093841;28;20196;-61
2022/07/29 10:00:02;;;;;;;4.50;2.67;;;31.70;29.40;;;35.18;22.51;101687.84;5096319;28;20200;-64
2022/07/29 10:02:33;;;;;;;2.77;2.50;;;31.40;29.50;;;34.92;22.33;101688.84;5095534;28;20219;-63
2022/07/29 10:05:05;;;;;;;5.90;3.00;;;31.20;29.50;;;34.75;22.92;101683.28;5093071;28;20661;-65
2022/07/29 10:07:48;;;;;;;3.83;2.43;;;31.10;30.00;;;34.62;23.03;101691.25;5093140;28;20208;-64
2022/07/29 10:10:50;;;;;;;3.13;1.93;;;31.00;30.30;;;34.63;22.92;101686.59;5096815;28;20196;-65
2022/07/29 10:13:21;;;;;;;3.07;1.80;;;30.90;30.40;;;34.64;23.06;101691.75;5096966;28;20206;-63
2022/07/29 10:15:50;;;;;;;4.03;2.57;;;30.80;30.20;;;34.49;22.63;101686.63;5109615;28;20223;-62
2022/07/29 10:18:19;;;;;;;4.13;2.40;;;30.70;30.10;;;34.26;22.83;101686.91;5115647;28;20598;-64
2022/07/29 10:20:49;;;;;;;4.90;2.93;;;30.70;30.00;;;34.02;23.11;101681.69;5083879;28;20204;-64
2022/07/29 10:23:34;;;;;;;3.17;2.20;;;30.60;30.30;;;33.64;23.63;101680.41;5086337;28;20223;-64
2022/07/29 10:26:15;;;;;;;4.90;2.53;;;30.40;30.20;;;33.40;23.58;101678.66;5088321;28;20222;-63
2022/07/29 10:28:42;;;;;;;4.57;2.73;;;30.30;30.70;;;33.19;24.41;101666.53;5097141;28;20204;-62
2022/07/29 10:31:26;;;;;;;8.33;2.77;;;30.10;30.90;;;32.93;24.20;101670.00;5091024;28;20203;-63
2022/07/29 10:34:10;;;;;;;4.03;2.80;;;29.90;30.70;;;32.71;24.15;101659.78;5095596;28;20259;-64